sensor_id;sensor_type;location;lat;lon;timestamp;P1;durP1;ratioP1;P2;durP2;ratioP2
2934;SDS011;2462;51.456;7.248;2022-07-29T00:00:11;3.70;;;1.50;;
2934;SDS011;2462;51.456;7.248;2022-07-29T00:02:37;6.00;;;1.40;;
2934;SDS011;2462;51.456;7.248;2022-07-29T00:05:03;3.83;;;1.53;;
2934;SDS011;2462;51.456;7.248;2022-07-29T00:07:29;2.10;;;1.40;;
2934;SDS011;2462;51.456;7.248;2022-07-29T00:09:55;7.00;;;1.73;;
2934;SDS011;2462;51.456;7.248;2022-07-29T00:12:22;3.20;;;1.80;;
2934;SDS011;2462;51.456;7.248;2022-07-29T00:14:49;4.50;;;1.30;;
2934;SDS011;2462;51.456;7.248;2022-07-29T00:17:14;2.93;;;1.50;;
2934;SDS011;2462;51.456;7.248;2022-07-29T00:19:40;4.23;;;1.83;;
2934;SDS011;2462;51.456;7.248;2022-07-29T00:22:05;2.70;;;1.60;;
2934;SDS011;2462;51.456;7.248;2022-07-29T00:24:31;3.83;;;2.30;;
2934;SDS011;2462;51.456;7.248;2022-07-29T00:26:56;4.93;;;1.70;;
2934;SDS011;2462;51.456;7.248;2022-07-29T00:29:22;5.40;;;1.63;;
2934;SDS011;2462;51.456;7.248;2022-07-29T00:31:48;2.27;;;1.57;;
2934;SDS011;2462;51.456;7.248;2022-07-29T00:34:14;3.20;;;1.30;;
2934;SDS011;2462;51.456;7.248;2022-07-29T00:36:58;6.73;;;1.70;;
2934;SDS011;2462;51.456;7.248;2022-07-29T00:39:24;6.97;;;1.87;;
2934;SDS011;2462;51.456;7.248;2022-07-29T00:41:49;3.40;;;1.50;;
2934;SDS011;2462;51.456;7.248;2022-07-29T00:44:15;5.27;;;2.13;;
2934;SDS011;2462;51.456;7.248;2022-07-29T00:46:41;6.10;;;1.93;;
2934;SDS011;2462;51.456;7.248;2022-07-29T00:49:06;4.67;;;2.00;;
2934;SDS011;2462;51.456;7.248;2022-07-29T00:51:34;3.20;;;1.80;;
2934;SDS011;2462;51.456;7.248;2022-07-29T00:54:01;6.00;;;1.67;;
2934;SDS011;2462;51.456;7.248;2022-07-29T00:56:29;6.73;;;1.70;;
2934;SDS011;2462;51.456;7.248;2022-07-29T00:58:55;3.33;;;1.50;;
2934;SDS011;2462;51.456;7.248;2022-07-29T01:01:22;4.70;;;1.57;;
2934;SDS011;2462;51.456;7.248;2022-07-29T01:03:48;2.30;;;1.43;;
2934;SDS011;2462;51.456;7.248;2022-07-29T01:06:14;4.30;;;1.60;;
2934;SDS011;2462;51.456;7.248;2022-07-29T01:08:41;3.57;;;1.37;;
2934;SDS011;2462;51.456;7.248;2022-07-29T01:11:08;6.97;;;1.93;;
2934;SDS011;2462;51.456;7.248;2022-07-29T01:13:34;5.73;;;1.60;;
2934;SDS011;2462;51.456;7.248;2022-07-29T01:16:06;5.80;;;1.93;;
2934;SDS011;2462;51.456;7.248;2022-07-29T01:18:41;6.80;;;2.17;;
2934;SDS011;2462;51.456;7.248;2022-07-29T01:24:10;8.43;;;1.97;;
2934;SDS011;2462;51.456;7.248;2022-07-29T01:31:56;4.70;;;1.70;;
2934;SDS011;2462;51.456;7.248;2022-07-29T01:34:40;4.20;;;2.20;;
2934;SDS011;2462;51.456;7.248;2022-07-29T01:37:22;1.47;;;1.20;;
2934;SDS011;2462;51.456;7.248;2022-07-29T01:40:11;3.70;;;1.70;;
2934;SDS011;2462;51.456;7.248;2022-07-29T01:42:43;2.83;;;1.60;;
2934;SDS011;2462;51.456;7.248;2022-07-29T01:47:44;4.43;;;1.90;;
2934;SDS011;2462;51.456;7.248;2022-07-29T01:50:19;6.27;;;1.73;;
2934;SDS011;2462;51.456;7.248;2022-07-29T01:52:55;5.00;;;1.70;;
2934;SDS011;2462;51.456;7.248;2022-07-29T01:55:25;2.00;;;1.53;;
2934;SDS011;2462;51.456;7.248;2022-07-29T01:57:54;2.70;;;1.90;;
2934;SDS011;2462;51.456;7.248;2022-07-29T02:00:22;2.87;;;1.80;;
2934;SDS011;2462;51.456;7.248;2022-07-29T02:02:48;4.07;;;1.53;;
2934;SDS011;2462;51.456;7.248;2022-07-29T02:05:15;2.20;;;1.63;;
2934;SDS011;2462;51.456;7.248;2022-07-29T02:07:44;2.83;;;1.30;;
2934;SDS011;2462;51.456;7.248;2022-07-29T02:10:12;3.93;;;1.80;;
2934;SDS011;2462;51.456;7.248;2022-07-29T02:12:39;6.37;;;1.70;;
2934;SDS011;2462;51.456;7.248;2022-07-29T02:15:08;1.90;;;1.40;;
2934;SDS011;2462;51.456;7.248;2022-07-29T02:17:40;6.37;;;1.97;;
2934;SDS011;2462;51.456;7.248;2022-07-29T02:20:09;5.60;;;2.07;;
2934;SDS011;2462;51.456;7.248;2022-07-29T02:22:35;5.20;;;1.93;;
2934;SDS011;2462;51.456;7.248;2022-07-29T02:25:04;4.87;;;1.80;;
2934;SDS011;2462;51.456;7.248;2022-07-29T02:27:31;3.93;;;1.70;;
2934;SDS011;2462;51.456;7.248;2022-07-29T02:29:59;6.07;;;1.93;;
2934;SDS011;2462;51.456;7.248;2022-07-29T02:32:27;4.93;;;1.50;;
2934;SDS011;2462;51.456;7.248;2022-07-29T02:34:53;6.20;;;1.87;;
2934;SDS011;2462;51.456;7.248;2022-07-29T02:37:20;4.30;;;1.77;;
2934;SDS011;2462;51.456;7.248;2022-07-29T02:39:47;4.37;;;1.50;;
2934;SDS011;2462;51.456;7.248;2022-07-29T02:42:14;4.70;;;1.70;;
2934;SDS011;2462;51.456;7.248;2022-07-29T02:44:42;4.40;;;1.20;;
2934;SDS011;2462;51.456;7.248;2022-07-29T02:50:12;4.50;;;1.97;;
2934;SDS011;2462;51.456;7.248;2022-07-29T02:55:33;3.70;;;1.73;;
2934;SDS011;2462;51.456;7.248;2022-07-29T02:58:14;4.60;;;1.70;;
2934;SDS011;2462;51.456;7.248;2022-07-29T03:01:10;8.57;;;2.00;;
2934;SDS011;2462;51.456;7.248;2022-07-29T03:03:39;2.67;;;2.07;;
2934;SDS011;2462;51.456;7.248;2022-07-29T03:06:08;3.93;;;1.87;;
2934;SDS011;2462;51.456;7.248;2022-07-29T03:08:36;3.47;;;1.93;;
2934;SDS011;2462;51.456;7.248;2022-07-29T03:11:02;4.60;;;1.97;;
2934;SDS011;2462;51.456;7.248;2022-07-29T03:13:29;5.63;;;1.80;;
2934;SDS011;2462;51.456;7.248;2022-07-29T03:15:55;4.33;;;1.50;;
2934;SDS011;2462;51.456;7.248;2022-07-29T03:18:22;2.67;;;1.70;;
2934;SDS011;2462;51.456;7.248;2022-07-29T03:20:48;5.00;;;1.70;;
2934;SDS011;2462;51.456;7.248;2022-07-29T03:23:20;5.10;;;1.73;;
2934;SDS011;2462;51.456;7.248;2022-07-29T03:25:49;4.67;;;1.87;;
2934;SDS011;2462;51.456;7.248;2022-07-29T03:28:15;7.63;;;1.87;;
2934;SDS011;2462;51.456;7.248;2022-07-29T03:30:40;3.17;;;1.77;;
2934;SDS011;2462;51.456;7.248;2022-07-29T03:33:06;2.27;;;1.67;;
2934;SDS011;2462;51.456;7.248;2022-07-29T03:35:32;4.27;;;1.77;;
2934;SDS011;2462;51.456;7.248;2022-07-29T03:37:58;5.60;;;2.03;;
2934;SDS011;2462;51.456;7.248;2022-07-29T03:40:33;3.63;;;2.00;;
2934;SDS011;2462;51.456;7.248;2022-07-29T03:43:05;3.10;;;1.60;;
2934;SDS011;2462;51.456;7.248;2022-07-29T03:45:33;5.40;;;2.40;;
2934;SDS011;2462;51.456;7.248;2022-07-29T03:48:01;4.70;;;1.83;;
2934;SDS011;2462;51.456;7.248;2022-07-29T03:50:31;4.20;;;1.90;;
2934;SDS011;2462;51.456;7.248;2022-07-29T03:52:58;4.00;;;2.00;;
2934;SDS011;2462;51.456;7.248;2022-07-29T03:55:24;5.30;;;2.20;;
2934;SDS011;2462;51.456;7.248;2022-07-29T03:57:51;3.03;;;2.07;;
2934;SDS011;2462;51.456;7.248;2022-07-29T04:00:16;3.50;;;2.10;;
2934;SDS011;2462;51.456;7.248;2022-07-29T04:02:43;7.23;;;2.17;;
2934;SDS011;2462;51.456;7.248;2022-07-29T04:05:13;5.63;;;2.33;;
2934;SDS011;2462;51.456;7.248;2022-07-29T04:07:40;6.17;;;2.20;;
2934;SDS011;2462;51.456;7.248;2022-07-29T04:10:08;4.20;;;1.93;;
2934;SDS011;2462;51.456;7.248;2022-07-29T04:12:34;2.83;;;1.77;;
2934;SDS011;2462;51.456;7.248;2022-07-29T04:15:00;4.70;;;2.30;;
2934;SDS011;2462;51.456;7.248;2022-07-29T04:17:26;7.03;;;1.40;;
2934;SDS011;2462;51.456;7.248;2022-07-29T04:19:51;4.70;;;1.60;;
2934;SDS011;2462;51.456;7.248;2022-07-29T04:22:17;2.60;;;1.50;;
2934;SDS011;2462;51.456;7.248;2022-07-29T04:24:42;8.23;;;1.83;;
2934;SDS011;2462;51.456;7.248;2022-07-29T04:27:08;5.97;;;1.70;;
2934;SDS011;2462;51.456;7.248;2022-07-29T04:29:33;3.40;;;1.37;;
2934;SDS011;2462;51.456;7.248;2022-07-29T04:31:59;4.67;;;1.77;;
2934;SDS011;2462;51.456;7.248;2022-07-29T04:34:24;6.30;;;1.90;;
2934;SDS011;2462;51.456;7.248;2022-07-29T04:36:50;2.13;;;1.40;;
2934;SDS011;2462;51.456;7.248;2022-07-29T04:39:15;4.37;;;1.70;;
2934;SDS011;2462;51.456;7.248;2022-07-29T04:41:43;1.90;;;1.53;;
2934;SDS011;2462;51.456;7.248;2022-07-29T04:44:08;3.00;;;1.70;;
2934;SDS011;2462;51.456;7.248;2022-07-29T04:46:34;7.53;;;1.77;;
2934;SDS011;2462;51.456;7.248;2022-07-29T04:49:00;4.50;;;1.83;;
2934;SDS011;2462;51.456;7.248;2022-07-29T04:51:26;5.97;;;1.60;;
2934;SDS011;2462;51.456;7.248;2022-07-29T04:53:52;5.40;;;1.70;;
2934;SDS011;2462;51.456;7.248;2022-07-29T04:56:17;4.53;;;2.00;;
2934;SDS011;2462;51.456;7.248;2022-07-29T04:58:43;3.43;;;1.70;;
2934;SDS011;2462;51.456;7.248;2022-07-29T05:01:08;6.80;;;2.07;;
2934;SDS011;2462;51.456;7.248;2022-07-29T05:03:34;5.00;;;1.80;;
2934;SDS011;2462;51.456;7.248;2022-07-29T05:05:59;3.00;;;1.70;;
2934;SDS011;2462;51.456;7.248;2022-07-29T05:08:25;3.47;;;1.77;;
2934;SDS011;2462;51.456;7.248;2022-07-29T05:10:50;2.73;;;1.77;;
2934;SDS011;2462;51.456;7.248;2022-07-29T05:13:16;5.33;;;1.97;;
2934;SDS011;2462;51.456;7.248;2022-07-29T05:15:41;8.20;;;1.90;;
2934;SDS011;2462;51.456;7.248;2022-07-29T05:18:07;4.53;;;1.60;;
2934;SDS011;2462;51.456;7.248;2022-07-29T05:20:32;5.77;;;1.60;;
2934;SDS011;2462;51.456;7.248;2022-07-29T05:22:59;4.47;;;1.87;;
2934;SDS011;2462;51.456;7.248;2022-07-29T05:25:26;5.53;;;1.80;;
2934;SDS011;2462;51.456;7.248;2022-07-29T05:27:53;6.70;;;2.33;;
2934;SDS011;2462;51.456;7.248;2022-07-29T05:30:19;4.50;;;1.93;;
2934;SDS011;2462;51.456;7.248;2022-07-29T05:32:44;4.23;;;2.43;;
2934;SDS011;2462;51.456;7.248;2022-07-29T05:35:10;3.93;;;2.07;;
2934;SDS011;2462;51.456;7.248;2022-07-29T05:37:36;4.83;;;1.80;;
2934;SDS011;2462;51.456;7.248;2022-07-29T05:40:02;4.37;;;1.63;;
2934;SDS011;2462;51.456;7.248;2022-07-29T05:42:29;3.20;;;2.30;;
2934;SDS011;2462;51.456;7.248;2022-07-29T05:44:54;5.00;;;2.43;;
2934;SDS011;2462;51.456;7.248;2022-07-29T05:47:20;3.93;;;1.83;;
2934;SDS011;2462;51.456;7.248;2022-07-29T05:49:46;4.87;;;1.90;;
2934;SDS011;2462;51.456;7.248;2022-07-29T05:52:12;4.40;;;2.90;;
2934;SDS011;2462;51.456;7.248;2022-07-29T05:54:40;3.83;;;1.73;;
2934;SDS011;2462;51.456;7.248;2022-07-29T05:57:06;3.87;;;2.00;;
2934;SDS011;2462;51.456;7.248;2022-07-29T05:59:35;4.23;;;2.10;;
2934;SDS011;2462;51.456;7.248;2022-07-29T06:02:01;2.50;;;1.67;;
2934;SDS011;2462;51.456;7.248;2022-07-29T06:04:27;3.63;;;2.00;;
2934;SDS011;2462;51.456;7.248;2022-07-29T06:06:53;5.37;;;2.07;;
2934;SDS011;2462;51.456;7.248;2022-07-29T06:09:18;5.43;;;1.80;;
2934;SDS011;2462;51.456;7.248;2022-07-29T06:11:44;6.10;;;2.30;;
2934;SDS011;2462;51.456;7.248;2022-07-29T06:14:09;3.47;;;2.00;;
2934;SDS011;2462;51.456;7.248;2022-07-29T06:16:36;12.00;;;2.03;;
2934;SDS011;2462;51.456;7.248;2022-07-29T06:19:02;5.90;;;1.80;;
2934;SDS011;2462;51.456;7.248;2022-07-29T06:21:27;6.33;;;2.10;;
2934;SDS011;2462;51.456;7.248;2022-07-29T06:23:53;5.37;;;2.00;;
2934;SDS011;2462;51.456;7.248;2022-07-29T06:26:18;2.53;;;2.33;;
2934;SDS011;2462;51.456;7.248;2022-07-29T06:28:44;4.10;;;1.87;;
2934;SDS011;2462;51.456;7.248;2022-07-29T06:31:09;5.13;;;1.87;;
2934;SDS011;2462;51.456;7.248;2022-07-29T06:33:35;8.70;;;2.40;;
2934;SDS011;2462;51.456;7.248;2022-07-29T06:36:02;4.20;;;2.20;;
2934;SDS011;2462;51.456;7.248;2022-07-29T06:38:29;5.23;;;2.20;;
2934;SDS011;2462;51.456;7.248;2022-07-29T06:40:54;5.30;;;2.07;;
2934;SDS011;2462;51.456;7.248;2022-07-29T06:43:34;4.17;;;2.27;;
2934;SDS011;2462;51.456;7.248;2022-07-29T06:46:06;6.80;;;2.77;;
2934;SDS011;2462;51.456;7.248;2022-07-29T06:48:34;4.57;;;2.27;;
2934;SDS011;2462;51.456;7.248;2022-07-29T06:51:00;3.20;;;2.20;;
2934;SDS011;2462;51.456;7.248;2022-07-29T06:53:28;5.83;;;3.07;;
2934;SDS011;2462;51.456;7.248;2022-07-29T06:55:54;8.20;;;2.80;;
2934;SDS011;2462;51.456;7.248;2022-07-29T06:58:19;3.70;;;2.33;;
2934;SDS011;2462;51.456;7.248;2022-07-29T07:00:48;9.17;;;2.60;;
2934;SDS011;2462;51.456;7.248;2022-07-29T07:03:14;5.27;;;2.33;;
2934;SDS011;2462;51.456;7.248;2022-07-29T07:05:40;8.20;;;2.00;;
2934;SDS011;2462;51.456;7.248;2022-07-29T07:08:06;4.10;;;2.50;;
2934;SDS011;2462;51.456;7.248;2022-07-29T07:10:33;8.00;;;2.60;;
2934;SDS011;2462;51.456;7.248;2022-07-29T07:12:59;4.30;;;2.97;;
2934;SDS011;2462;51.456;7.248;2022-07-29T07:15:25;4.57;;;2.27;;
2934;SDS011;2462;51.456;7.248;2022-07-29T07:17:51;10.00;;;3.53;;
2934;SDS011;2462;51.456;7.248;2022-07-29T07:20:17;7.07;;;2.63;;
2934;SDS011;2462;51.456;7.248;2022-07-29T07:22:43;7.73;;;2.63;;
2934;SDS011;2462;51.456;7.248;2022-07-29T07:25:09;5.30;;;2.60;;
2934;SDS011;2462;51.456;7.248;2022-07-29T07:27:36;7.67;;;2.87;;
2934;SDS011;2462;51.456;7.248;2022-07-29T07:30:02;3.03;;;2.57;;
2934;SDS011;2462;51.456;7.248;2022-07-29T07:32:34;3.07;;;2.23;;
2934;SDS011;2462;51.456;7.248;2022-07-29T07:35:00;5.53;;;2.40;;
2934;SDS011;2462;51.456;7.248;2022-07-29T07:37:26;6.20;;;2.73;;
2934;SDS011;2462;51.456;7.248;2022-07-29T07:39:52;6.53;;;2.60;;
2934;SDS011;2462;51.456;7.248;2022-07-29T07:42:18;3.30;;;2.37;;
2934;SDS011;2462;51.456;7.248;2022-07-29T07:44:44;6.57;;;3.77;;
2934;SDS011;2462;51.456;7.248;2022-07-29T07:47:10;6.00;;;2.43;;
2934;SDS011;2462;51.456;7.248;2022-07-29T07:49:40;5.13;;;2.17;;
2934;SDS011;2462;51.456;7.248;2022-07-29T07:52:06;5.90;;;2.50;;
2934;SDS011;2462;51.456;7.248;2022-07-29T07:54:31;3.20;;;2.33;;
2934;SDS011;2462;51.456;7.248;2022-07-29T07:56:57;3.47;;;2.27;;
2934;SDS011;2462;51.456;7.248;2022-07-29T07:59:22;8.10;;;2.40;;
2934;SDS011;2462;51.456;7.248;2022-07-29T08:01:48;5.30;;;2.47;;
2934;SDS011;2462;51.456;7.248;2022-07-29T08:04:14;2.60;;;1.77;;
2934;SDS011;2462;51.456;7.248;2022-07-29T08:06:40;4.03;;;2.03;;
2934;SDS011;2462;51.456;7.248;2022-07-29T08:09:05;5.50;;;2.60;;
2934;SDS011;2462;51.456;7.248;2022-07-29T08:11:31;4.63;;;2.40;;
2934;SDS011;2462;51.456;7.248;2022-07-29T08:13:57;7.40;;;2.40;;
2934;SDS011;2462;51.456;7.248;2022-07-29T08:16:22;3.60;;;2.30;;
2934;SDS011;2462;51.456;7.248;2022-07-29T08:18:49;4.90;;;2.47;;
2934;SDS011;2462;51.456;7.248;2022-07-29T08:21:16;3.87;;;2.50;;
2934;SDS011;2462;51.456;7.248;2022-07-29T08:23:43;4.57;;;2.00;;
2934;SDS011;2462;51.456;7.248;2022-07-29T08:26:18;3.27;;;2.10;;
2934;SDS011;2462;51.456;7.248;2022-07-29T08:28:46;5.63;;;2.37;;
2934;SDS011;2462;51.456;7.248;2022-07-29T08:31:14;2.97;;;2.20;;
2934;SDS011;2462;51.456;7.248;2022-07-29T08:33:41;4.10;;;2.33;;
2934;SDS011;2462;51.456;7.248;2022-07-29T08:36:06;7.00;;;3.13;;
2934;SDS011;2462;51.456;7.248;2022-07-29T08:38:32;8.03;;;2.60;;
2934;SDS011;2462;51.456;7.248;2022-07-29T08:40:59;3.50;;;2.10;;
2934;SDS011;2462;51.456;7.248;2022-07-29T08:43:26;2.30;;;2.00;;
2934;SDS011;2462;51.456;7.248;2022-07-29T08:45:53;5.40;;;2.33;;
2934;SDS011;2462;51.456;7.248;2022-07-29T08:48:20;4.47;;;2.67;;
2934;SDS011;2462;51.456;7.248;2022-07-29T08:50:48;5.63;;;2.90;;
2934;SDS011;2462;51.456;7.248;2022-07-29T08:53:17;3.77;;;2.33;;
2934;SDS011;2462;51.456;7.248;2022-07-29T08:55:44;14.93;;;3.23;;
2934;SDS011;2462;51.456;7.248;2022-07-29T08:58:14;5.83;;;2.50;;
2934;SDS011;2462;51.456;7.248;2022-07-29T09:00:42;5.73;;;2.73;;
2934;SDS011;2462;51.456;7.248;2022-07-29T09:03:09;5.20;;;2.77;;
2934;SDS011;2462;51.456;7.248;2022-07-29T09:05:41;8.13;;;2.63;;
2934;SDS011;2462;51.456;7.248;2022-07-29T09:08:08;2.70;;;2.20;;
2934;SDS011;2462;51.456;7.248;2022-07-29T09:10:36;4.50;;;2.30;;
2934;SDS011;2462;51.456;7.248;2022-07-29T09:13:02;5.43;;;2.17;;
2934;SDS011;2462;51.456;7.248;2022-07-29T09:15:28;6.57;;;3.10;;
2934;SDS011;2462;51.456;7.248;2022-07-29T09:17:53;6.60;;;2.70;;
2934;SDS011;2462;51.456;7.248;2022-07-29T09:20:20;9.10;;;2.70;;
2934;SDS011;2462;51.456;7.248;2022-07-29T09:22:48;3.40;;;2.63;;
2934;SDS011;2462;51.456;7.248;2022-07-29T09:25:14;4.83;;;3.07;;
2934;SDS011;2462;51.456;7.248;2022-07-29T09:28:04;7.07;;;2.90;;
2934;SDS011;2462;51.456;7.248;2022-07-29T09:30:34;3.80;;;2.50;;
2934;SDS011;2462;51.456;7.248;2022-07-29T09:33:01;5.07;;;2.13;;
2934;SDS011;2462;51.456;7.248;2022-07-29T09:35:28;5.00;;;2.60;;
2934;SDS011;2462;51.456;7.248;2022-07-29T09:37:55;6.17;;;3.30;;
2934;SDS011;2462;51.456;7.248;2022-07-29T09:40:25;6.27;;;2.87;;
2934;SDS011;2462;51.456;7.248;2022-07-29T09:42:52;9.77;;;3.43;;
2934;SDS011;2462;51.456;7.248;2022-07-29T09:45:28;6.40;;;3.10;;
2934;SDS011;2462;51.456;7.248;2022-07-29T09:47:55;3.40;;;2.60;;
2934;SDS011;2462;51.456;7.248;2022-07-29T09:50:34;7.17;;;2.50;;
2934;SDS011;2462;51.456;7.248;2022-07-29T09:53:06;9.10;;;3.10;;
2934;SDS011;2462;51.456;7.248;2022-07-29T09:55:45;4.73;;;2.50;;
2934;SDS011;2462;51.456;7.248;2022-07-29T09:58:19;5.37;;;2.50;;
2934;SDS011;2462;51.456;7.248;2022-07-29T10:00:46;7.00;;;3.13;;
2934;SDS011;2462;51.456;7.248;2022-07-29T10:03:13;4.57;;;2.90;;
2934;SDS011;2462;51.456;7.248;2022-07-29T10:05:40;7.17;;;3.60;;
2934;SDS011;2462;51.456;7.248;2022-07-29T10:08:07;7.70;;;2.90;;
2934;SDS011;2462;51.456;7.248;2022-07-29T10:10:34;7.33;;;2.83;;
2934;SDS011;2462;51.456;7.248;2022-07-29T10:13:05;7.13;;;3.20;;
2934;SDS011;2462;51.456;7.248;2022-07-29T10:15:34;5.20;;;2.67;;
2934;SDS011;2462;51.456;7.248;2022-07-29T10:18:05;4.70;;;2.90;;
2934;SDS011;2462;51.456;7.248;2022-07-29T10:23:03;4.80;;;2.70;;
2934;SDS011;2462;51.456;7.248;2022-07-29T10:25:29;10.07;;;3.10;;
2934;SDS011;2462;51.456;7.248;2022-07-29T10:27:55;3.67;;;3.17;;
2934;SDS011;2462;51.456;7.248;2022-07-29T10:30:21;6.93;;;2.50;;
2934;SDS011;2462;51.456;7.248;2022-07-29T10:32:54;8.57;;;3.30;;
2934;SDS011;2462;51.456;7.248;2022-07-29T10:44:15;5.87;;;2.63;;
2934;SDS011;2462;51.456;7.248;2022-07-29T10:46:43;5.97;;;3.00;;
2934;SDS011;2462;51.456;7.248;2022-07-29T10:49:13;7.60;;;3.20;;
2934;SDS011;2462;51.456;7.248;2022-07-29T10:51:50;6.80;;;3.00;;
2934;SDS011;2462;51.456;7.248;2022-07-29T10:54:17;3.40;;;2.57;;
2934;SDS011;2462;51.456;7.248;2022-07-29T11:05:00;10.47;;;3.70;;
2934;SDS011;2462;51.456;7.248;2022-07-29T11:07:30;6.63;;;3.03;;
2934;SDS011;2462;51.456;7.248;2022-07-29T11:15:05;7.10;;;3.20;;
2934;SDS011;2462;51.456;7.248;2022-07-29T11:25:44;5.90;;;3.50;;
2934;SDS011;2462;51.456;7.248;2022-07-29T11:28:13;9.70;;;3.50;;
2934;SDS011;2462;51.456;7.248;2022-07-29T11:30:47;3.80;;;3.17;;
2934;SDS011;2462;51.456;7.248;2022-07-29T11:33:26;3.43;;;3.10;;
2934;SDS011;2462;51.456;7.248;2022-07-29T11:36:29;11.23;;;4.30;;
2934;SDS011;2462;51.456;7.248;2022-07-29T11:38:47;6.67;;;3.73;;
2934;SDS011;2462;51.456;7.248;2022-07-29T11:43:58;5.67;;;4.03;;
2934;SDS011;2462;51.456;7.248;2022-07-29T11:49:26;7.23;;;3.80;;
2934;SDS011;2462;51.456;7.248;2022-07-29T11:51:52;5.63;;;2.90;;
2934;SDS011;2462;51.456;7.248;2022-07-29T11:54:25;5.47;;;4.00;;
2934;SDS011;2462;51.456;7.248;2022-07-29T11:56:55;10.50;;;3.87;;
2934;SDS011;2462;51.456;7.248;2022-07-29T11:59:22;9.17;;;4.30;;
2934;SDS011;2462;51.456;7.248;2022-07-29T12:01:53;7.77;;;4.33;;
2934;SDS011;2462;51.456;7.248;2022-07-29T12:04:19;4.83;;;3.80;;
2934;SDS011;2462;51.456;7.248;2022-07-29T12:06:49;4.87;;;4.13;;
2934;SDS011;2462;51.456;7.248;2022-07-29T12:09:15;10.63;;;5.23;;
2934;SDS011;2462;51.456;7.248;2022-07-29T12:11:42;5.23;;;3.90;;
2934;SDS011;2462;51.456;7.248;2022-07-29T12:14:08;5.90;;;4.03;;
2934;SDS011;2462;51.456;7.248;2022-07-29T12:16:36;5.73;;;3.73;;
2934;SDS011;2462;51.456;7.248;2022-07-29T12:19:02;7.27;;;4.47;;
2934;SDS011;2462;51.456;7.248;2022-07-29T12:21:29;4.30;;;3.03;;
2934;SDS011;2462;51.456;7.248;2022-07-29T12:24:14;9.40;;;3.43;;
2934;SDS011;2462;51.456;7.248;2022-07-29T12:26:53;5.60;;;3.93;;
2934;SDS011;2462;51.456;7.248;2022-07-29T12:29:21;6.00;;;2.87;;
2934;SDS011;2462;51.456;7.248;2022-07-29T12:31:50;5.90;;;3.40;;
2934;SDS011;2462;51.456;7.248;2022-07-29T12:34:19;6.43;;;3.43;;
2934;SDS011;2462;51.456;7.248;2022-07-29T12:36:47;3.60;;;3.30;;
2934;SDS011;2462;51.456;7.248;2022-07-29T12:39:14;13.23;;;2.90;;
2934;SDS011;2462;51.456;7.248;2022-07-29T12:41:42;9.00;;;3.70;;
2934;SDS011;2462;51.456;7.248;2022-07-29T12:44:07;3.70;;;2.50;;
2934;SDS011;2462;51.456;7.248;2022-07-29T12:46:33;5.17;;;3.03;;
2934;SDS011;2462;51.456;7.248;2022-07-29T12:48:58;5.47;;;3.10;;
2934;SDS011;2462;51.456;7.248;2022-07-29T12:51:34;5.43;;;3.20;;
2934;SDS011;2462;51.456;7.248;2022-07-29T12:54:08;4.17;;;3.20;;
2934;SDS011;2462;51.456;7.248;2022-07-29T12:56:35;5.03;;;3.40;;
2934;SDS011;2462;51.456;7.248;2022-07-29T12:59:18;10.60;;;2.67;;
2934;SDS011;2462;51.456;7.248;2022-07-29T13:01:45;4.97;;;2.90;;
2934;SDS011;2462;51.456;7.248;2022-07-29T13:04:26;4.13;;;2.93;;
2934;SDS011;2462;51.456;7.248;2022-07-29T13:07:06;5.40;;;2.90;;
2934;SDS011;2462;51.456;7.248;2022-07-29T13:09:42;6.10;;;3.13;;
2934;SDS011;2462;51.456;7.248;2022-07-29T13:12:09;12.73;;;3.20;;
2934;SDS011;2462;51.456;7.248;2022-07-29T13:14:38;5.43;;;4.10;;
2934;SDS011;2462;51.456;7.248;2022-07-29T13:17:05;4.60;;;2.97;;
2934;SDS011;2462;51.456;7.248;2022-07-29T13:22:02;3.80;;;2.67;;
2934;SDS011;2462;51.456;7.248;2022-07-29T13:24:28;5.20;;;2.47;;
2934;SDS011;2462;51.456;7.248;2022-07-29T13:26:53;3.80;;;2.40;;
2934;SDS011;2462;51.456;7.248;2022-07-29T13:29:19;4.67;;;2.80;;
2934;SDS011;2462;51.456;7.248;2022-07-29T13:31:44;4.40;;;2.43;;
2934;SDS011;2462;51.456;7.248;2022-07-29T13:34:10;2.90;;;2.50;;
2934;SDS011;2462;51.456;7.248;2022-07-29T13:36:36;6.20;;;2.77;;
2934;SDS011;2462;51.456;7.248;2022-07-29T13:39:02;6.60;;;2.77;;
2934;SDS011;2462;51.456;7.248;2022-07-29T13:41:28;3.30;;;2.33;;
2934;SDS011;2462;51.456;7.248;2022-07-29T13:43:53;5.40;;;2.67;;
2934;SDS011;2462;51.456;7.248;2022-07-29T13:46:19;3.20;;;2.90;;
2934;SDS011;2462;51.456;7.248;2022-07-29T13:48:45;2.20;;;2.00;;
2934;SDS011;2462;51.456;7.248;2022-07-29T13:51:10;3.93;;;2.50;;
2934;SDS011;2462;51.456;7.248;2022-07-29T13:53:36;8.73;;;2.47;;
2934;SDS011;2462;51.456;7.248;2022-07-29T13:56:01;5.30;;;2.53;;
2934;SDS011;2462;51.456;7.248;2022-07-29T13:58:27;6.40;;;2.40;;
2934;SDS011;2462;51.456;7.248;2022-07-29T14:00:53;4.20;;;2.43;;
2934;SDS011;2462;51.456;7.248;2022-07-29T14:03:18;3.10;;;2.57;;
2934;SDS011;2462;51.456;7.248;2022-07-29T14:05:45;2.90;;;2.27;;
2934;SDS011;2462;51.456;7.248;2022-07-29T14:08:10;4.27;;;2.43;;
2934;SDS011;2462;51.456;7.248;2022-07-29T14:10:36;3.37;;;2.90;;
2934;SDS011;2462;51.456;7.248;2022-07-29T14:13:01;6.17;;;2.23;;
2934;SDS011;2462;51.456;7.248;2022-07-29T14:15:27;2.63;;;2.27;;
2934;SDS011;2462;51.456;7.248;2022-07-29T14:17:53;9.50;;;3.57;;
2934;SDS011;2462;51.456;7.248;2022-07-29T14:20:18;4.10;;;2.60;;
2934;SDS011;2462;51.456;7.248;2022-07-29T14:22:44;5.07;;;2.83;;
2934;SDS011;2462;51.456;7.248;2022-07-29T14:25:09;5.90;;;2.40;;
2934;SDS011;2462;51.456;7.248;2022-07-29T14:27:35;3.83;;;2.37;;
2934;SDS011;2462;51.456;7.248;2022-07-29T14:30:00;7.33;;;2.80;;
2934;SDS011;2462;51.456;7.248;2022-07-29T14:32:26;5.30;;;2.50;;
2934;SDS011;2462;51.456;7.248;2022-07-29T14:34:52;4.27;;;2.50;;
2934;SDS011;2462;51.456;7.248;2022-07-29T14:37:17;4.50;;;2.23;;
2934;SDS011;2462;51.456;7.248;2022-07-29T14:39:43;4.00;;;2.37;;
2934;SDS011;2462;51.456;7.248;2022-07-29T14:42:09;5.80;;;2.47;;
2934;SDS011;2462;51.456;7.248;2022-07-29T14:44:35;7.57;;;2.80;;
2934;SDS011;2462;51.456;7.248;2022-07-29T14:47:01;4.30;;;2.47;;
2934;SDS011;2462;51.456;7.248;2022-07-29T14:49:26;7.90;;;2.53;;
2934;SDS011;2462;51.456;7.248;2022-07-29T14:51:52;6.60;;;2.87;;
2934;SDS011;2462;51.456;7.248;2022-07-29T14:54:18;5.57;;;2.20;;
2934;SDS011;2462;51.456;7.248;2022-07-29T14:56:43;5.50;;;2.50;;
2934;SDS011;2462;51.456;7.248;2022-07-29T14:59:09;2.10;;;1.90;;
2934;SDS011;2462;51.456;7.248;2022-07-29T15:01:34;5.90;;;2.33;;
2934;SDS011;2462;51.456;7.248;2022-07-29T15:04:00;10.63;;;2.70;;
2934;SDS011;2462;51.456;7.248;2022-07-29T15:06:26;2.20;;;2.00;;
2934;SDS011;2462;51.456;7.248;2022-07-29T15:08:51;6.33;;;2.20;;
2934;SDS011;2462;51.456;7.248;2022-07-29T15:11:17;8.77;;;2.37;;
2934;SDS011;2462;51.456;7.248;2022-07-29T15:13:42;2.40;;;1.80;;
2934;SDS011;2462;51.456;7.248;2022-07-29T15:16:08;3.70;;;2.20;;
2934;SDS011;2462;51.456;7.248;2022-07-29T15:18:34;7.27;;;2.70;;
2934;SDS011;2462;51.456;7.248;2022-07-29T15:21:00;4.97;;;2.20;;
2934;SDS011;2462;51.456;7.248;2022-07-29T15:23:27;3.27;;;2.03;;
2934;SDS011;2462;51.456;7.248;2022-07-29T15:25:52;9.53;;;2.50;;
2934;SDS011;2462;51.456;7.248;2022-07-29T15:28:18;4.10;;;2.23;;
2934;SDS011;2462;51.456;7.248;2022-07-29T15:30:43;5.07;;;2.60;;
2934;SDS011;2462;51.456;7.248;2022-07-29T15:33:09;5.67;;;2.43;;
2934;SDS011;2462;51.456;7.248;2022-07-29T15:35:35;4.03;;;2.40;;
2934;SDS011;2462;51.456;7.248;2022-07-29T15:38:01;8.90;;;2.57;;
2934;SDS011;2462;51.456;7.248;2022-07-29T15:40:27;3.97;;;2.00;;
2934;SDS011;2462;51.456;7.248;2022-07-29T15:42:53;5.10;;;2.40;;
2934;SDS011;2462;51.456;7.248;2022-07-29T15:45:19;6.47;;;2.83;;
2934;SDS011;2462;51.456;7.248;2022-07-29T15:47:44;4.80;;;2.97;;
2934;SDS011;2462;51.456;7.248;2022-07-29T15:50:10;3.50;;;2.50;;
2934;SDS011;2462;51.456;7.248;2022-07-29T15:52:39;5.50;;;2.40;;
2934;SDS011;2462;51.456;7.248;2022-07-29T15:55:06;4.70;;;2.60;;
2934;SDS011;2462;51.456;7.248;2022-07-29T15:57:31;3.03;;;2.57;;
2934;SDS011;2462;51.456;7.248;2022-07-29T15:59:57;6.40;;;2.27;;
2934;SDS011;2462;51.456;7.248;2022-07-29T16:02:23;2.37;;;1.80;;
2934;SDS011;2462;51.456;7.248;2022-07-29T16:04:48;5.10;;;3.17;;
2934;SDS011;2462;51.456;7.248;2022-07-29T16:07:14;4.23;;;2.93;;
2934;SDS011;2462;51.456;7.248;2022-07-29T16:09:40;5.63;;;4.23;;
2934;SDS011;2462;51.456;7.248;2022-07-29T16:12:06;4.40;;;2.43;;
2934;SDS011;2462;51.456;7.248;2022-07-29T16:14:32;3.93;;;2.53;;